createdAt,value
2022-11-25T00:00:02.905Z,23.95
2022-11-25T00:00:25.583Z,22.73
2022-11-25T00:00:48.263Z,22.13
2022-11-25T00:01:12.606Z,21.92
2022-11-25T00:01:35.523Z,22.38
2022-11-25T00:01:58.303Z,22.30
2022-11-25T00:02:22.838Z,23.15
2022-11-25T00:02:45.807Z,21.95
2022-11-25T00:03:08.738Z,21.98
2022-11-25T00:03:31.755Z,21.90
2022-11-25T00:03:55.535Z,21.48
2022-11-25T00:04:18.334Z,21.95
2022-11-25T00:04:43.412Z,22.63
2022-11-25T00:05:06.839Z,21.73
2022-11-25T00:05:29.571Z,22.15
2022-11-25T00:05:52.216Z,22.45
2022-11-25T00:06:16.058Z,22.50
2022-11-25T00:06:38.805Z,21.80
2022-11-25T00:07:01.586Z,21.27
2022-11-25T00:07:24.405Z,21.10
2022-11-25T00:07:47.200Z,21.30
2022-11-25T00:08:09.931Z,20.63
2022-11-25T00:08:32.651Z,20.58
2022-11-25T00:08:56.290Z,21.50
2022-11-25T00:09:19.033Z,20.77
2022-11-25T00:09:41.773Z,20.20
2022-11-25T00:10:06.034Z,20.42
2022-11-25T00:10:28.975Z,20.95
2022-11-25T00:10:52.021Z,20.48
2022-11-25T00:11:14.867Z,20.67
2022-11-25T00:11:40.482Z,21.08
2022-11-25T00:12:03.181Z,20.20
2022-11-25T00:12:25.922Z,20.38
2022-11-25T00:12:48.736Z,20.70
2022-11-25T00:13:11.567Z,20.15
2022-11-25T00:13:34.407Z,19.83
2022-11-25T00:13:57.437Z,20.23
2022-11-25T00:14:20.372Z,21.02
2022-11-25T00:14:43.097Z,21.05
2022-11-25T00:15:06.761Z,20.13
2022-11-25T00:15:29.567Z,20.00
2022-11-25T00:15:52.321Z,19.35
2022-11-25T00:16:18.752Z,18.98
2022-11-25T00:16:45.137Z,19.02
2022-11-25T00:17:11.483Z,18.33
2022-11-25T00:17:34.312Z,18.20
2022-11-25T00:17:57.043Z,18.08
2022-11-25T00:18:19.791Z,17.05
2022-11-25T00:18:46.197Z,18.85
2022-11-25T00:19:10.200Z,18.65
2022-11-25T00:19:33.938Z,18.95
2022-11-25T00:19:56.686Z,18.42
2022-11-25T00:20:21.338Z,18.17
2022-11-25T00:20:44.112Z,17.80
2022-11-25T00:21:07.541Z,17.80
2022-11-25T00:21:35.545Z,17.98
2022-11-25T00:21:58.250Z,17.45
2022-11-25T00:22:20.962Z,16.25
2022-11-25T00:22:43.660Z,15.15
2022-11-25T00:23:08.895Z,13.55
2022-11-25T00:23:33.511Z,12.82
2022-11-25T00:23:56.951Z,12.15
2022-11-25T00:24:19.648Z,12.82
2022-11-25T00:24:42.346Z,12.90
2022-11-25T00:25:06.412Z,13.68
2022-11-25T00:25:29.116Z,13.27
2022-11-25T00:25:51.836Z,12.77
2022-11-25T00:26:15.353Z,12.30
2022-11-25T00:26:39.571Z,11.80
2022-11-25T00:27:05.126Z,12.68
2022-11-25T00:27:27.837Z,13.15
2022-11-25T00:27:52.875Z,12.93
2022-11-25T00:28:15.660Z,14.15
2022-11-25T00:28:38.447Z,16.85
2022-11-25T00:29:01.781Z,16.95
2022-11-25T00:29:24.556Z,17.02
2022-11-25T00:29:47.221Z,16.40
2022-11-25T00:30:11.158Z,15.77
2022-11-25T00:30:34.124Z,16.30
2022-11-25T00:30:56.826Z,15.15
2022-11-25T00:31:20.378Z,15.10
2022-11-25T00:31:43.604Z,14.82
2022-11-25T00:32:06.471Z,14.65
2022-11-25T00:32:29.206Z,13.48
2022-11-25T00:32:52.890Z,13.57
2022-11-25T00:33:15.607Z,14.23
2022-11-25T00:33:38.404Z,14.40
2022-11-25T00:34:01.125Z,13.40
2022-11-25T00:34:23.861Z,13.23
2022-11-25T00:34:46.470Z,12.48
2022-11-25T00:35:09.455Z,12.88
2022-11-25T00:35:35.385Z,13.18
2022-11-25T00:36:00.241Z,13.32
2022-11-25T00:36:24.114Z,13.48
2022-11-25T00:36:46.880Z,13.43
2022-11-25T00:37:09.565Z,13.90
2022-11-25T00:37:32.685Z,13.70
2022-11-25T00:37:55.285Z,13.77
2022-11-25T00:38:17.980Z,14.27
2022-11-25T00:38:40.728Z,14.95
2022-11-25T00:39:05.625Z,15.40
2022-11-25T00:39:29.136Z,15.23
2022-11-25T00:39:52.691Z,14.45
2022-11-25T00:40:15.564Z,16.00
2022-11-25T00:40:38.236Z,16.15
2022-11-25T00:41:19.197Z,14.93
2022-11-25T00:42:01.770Z,16.77
2022-11-25T00:42:42.956Z,17.83
2022-11-25T00:43:25.922Z,18.20
2022-11-25T00:44:07.526Z,20.42
2022-11-25T00:44:36.741Z,21.70
2022-11-25T00:45:00.135Z,20.55
2022-11-25T00:45:22.800Z,19.17
2022-11-25T00:45:45.498Z,17.35
2022-11-25T00:46:08.366Z,17.73
2022-11-25T00:46:31.201Z,16.55
2022-11-25T00:46:53.911Z,16.13
2022-11-25T00:47:17.503Z,16.30
2022-11-25T00:47:40.246Z,17.15
2022-11-25T00:48:02.926Z,16.08
2022-11-25T00:48:25.612Z,17.08
2022-11-25T00:48:48.285Z,17.98
2022-11-25T00:49:11.110Z,17.48
2022-11-25T00:49:33.925Z,18.65
2022-11-25T00:49:56.656Z,18.88
2022-11-25T00:50:19.360Z,19.42
2022-11-25T00:50:44.075Z,20.08
2022-11-25T00:51:06.874Z,19.42
2022-11-25T00:51:29.585Z,19.35
2022-11-25T00:51:52.268Z,20.60
2022-11-25T00:52:16.005Z,20.40
2022-11-25T00:52:38.785Z,20.95
2022-11-25T00:53:01.470Z,21.88
2022-11-25T00:53:25.294Z,21.13
2022-11-25T00:53:48.051Z,21.00
2022-11-25T00:54:10.770Z,20.58
2022-11-25T00:54:33.751Z,20.10
2022-11-25T00:54:56.825Z,19.52
2022-11-25T00:55:19.520Z,19.80
2022-11-25T00:56:00.718Z,19.05
2022-11-25T00:56:23.855Z,19.73
2022-11-25T00:56:48.030Z,19.08
2022-11-25T00:57:10.881Z,18.55
2022-11-25T00:57:33.625Z,19.05
2022-11-25T00:57:56.820Z,19.45
2022-11-25T00:58:19.635Z,18.80
2022-11-25T00:58:42.696Z,19.33
2022-11-25T00:59:05.532Z,18.30
2022-11-25T00:59:28.916Z,19.17
2022-11-25T00:59:51.571Z,19.05
2022-11-25T01:00:15.330Z,19.95
2022-11-25T01:00:38.135Z,20.30
2022-11-25T01:01:02.535Z,20.80
2022-11-25T01:01:25.347Z,20.80
2022-11-25T01:01:48.140Z,20.67
2022-11-25T01:02:11.286Z,21.13
2022-11-25T01:02:34.091Z,19.92
2022-11-25T01:02:57.085Z,19.58
2022-11-25T01:03:19.811Z,19.58
2022-11-25T01:03:42.556Z,20.02
2022-11-25T01:04:08.162Z,18.77
2022-11-25T01:04:30.893Z,20.02
2022-11-25T01:04:53.610Z,20.15
2022-11-25T01:05:16.332Z,20.02
2022-11-25T01:05:39.036Z,19.75
2022-11-25T01:06:01.827Z,20.10
2022-11-25T01:06:24.468Z,21.73
2022-11-25T01:06:47.240Z,21.38
2022-11-25T01:07:12.249Z,20.73
2022-11-25T01:07:35.034Z,21.20
2022-11-25T01:07:58.255Z,21.33
2022-11-25T01:08:20.955Z,21.23
2022-11-25T01:08:43.818Z,21.30
2022-11-25T01:09:06.752Z,19.75
2022-11-25T01:09:29.675Z,21.38
2022-11-25T01:09:52.330Z,21.92
2022-11-25T01:10:15.075Z,21.75
2022-11-25T01:10:37.710Z,20.63
2022-11-25T01:11:00.354Z,22.38
2022-11-25T01:11:23.134Z,21.35
2022-11-25T01:11:47.190Z,20.48
2022-11-25T01:12:09.853Z,21.05
2022-11-25T01:12:34.711Z,21.80
2022-11-25T01:12:57.436Z,20.65
2022-11-25T01:13:20.080Z,19.38
2022-11-25T01:13:42.770Z,19.27
2022-11-25T01:14:06.035Z,20.35
2022-11-25T01:14:28.716Z,20.75
2022-11-25T01:14:51.446Z,20.20
2022-11-25T01:15:14.156Z,20.85
2022-11-25T01:15:37.275Z,20.25
2022-11-25T01:16:01.694Z,20.05
2022-11-25T01:16:24.519Z,19.15
2022-11-25T01:16:47.327Z,18.98
2022-11-25T01:17:09.980Z,19.92
2022-11-25T01:17:33.170Z,19.95
2022-11-25T01:17:55.990Z,20.02
2022-11-25T01:18:18.595Z,19.33
2022-11-25T01:18:41.355Z,18.15
2022-11-25T01:19:04.117Z,18.48
2022-11-25T01:19:27.014Z,19.30
2022-11-25T01:19:49.655Z,18.08
2022-11-25T01:20:12.991Z,17.88
2022-11-25T01:20:35.630Z,17.48
2022-11-25T01:21:06.044Z,17.70
2022-11-25T01:21:29.600Z,19.63
2022-11-25T01:21:52.238Z,19.52
2022-11-25T01:22:14.967Z,20.10
2022-11-25T01:22:37.560Z,19.27
2022-11-25T01:23:00.292Z,19.80
2022-11-25T01:23:22.985Z,20.02
2022-11-25T01:23:46.012Z,20.45
2022-11-25T01:24:08.950Z,19.45
2022-11-25T01:24:31.845Z,20.58
2022-11-25T01:24:54.476Z,20.00
2022-11-25T01:25:17.189Z,19.33
2022-11-25T01:25:39.971Z,18.95
2022-11-25T01:26:03.056Z,19.70
2022-11-25T01:26:25.796Z,20.25
2022-11-25T01:26:49.935Z,20.75
2022-11-25T01:27:12.694Z,19.92
2022-11-25T01:27:35.389Z,20.45
2022-11-25T01:27:58.145Z,20.42
2022-11-25T01:28:20.920Z,21.23
2022-11-25T01:28:43.689Z,21.52
2022-11-25T01:29:08.495Z,21.20
2022-11-25T01:29:31.275Z,21.20
2022-11-25T01:29:53.975Z,20.45
2022-11-25T01:30:17.029Z,20.30
2022-11-25T01:30:41.271Z,20.15
2022-11-25T01:31:05.614Z,20.98
2022-11-25T01:31:29.374Z,21.45
2022-11-25T01:31:52.376Z,20.50
2022-11-25T01:32:17.610Z,21.08
2022-11-25T01:32:40.449Z,21.00
2022-11-25T01:33:05.614Z,20.27
2022-11-25T01:33:28.830Z,19.77
2022-11-25T01:33:56.100Z,19.88
2022-11-25T01:34:19.500Z,19.42
2022-11-25T01:34:42.239Z,20.20
2022-11-25T01:35:07.194Z,21.08
2022-11-25T01:35:30.011Z,19.90
2022-11-25T01:35:52.783Z,19.70
2022-11-25T01:36:17.143Z,19.88
2022-11-25T01:36:39.964Z,19.95
2022-11-25T01:37:05.684Z,19.73
2022-11-25T01:37:28.429Z,19.15
2022-11-25T01:37:51.160Z,20.85
2022-11-25T01:38:13.890Z,19.88
2022-11-25T01:38:36.745Z,19.30
2022-11-25T01:39:00.116Z,19.67
2022-11-25T01:39:30.175Z,20.33
2022-11-25T01:39:54.775Z,19.35
2022-11-25T01:40:17.554Z,20.10
2022-11-25T01:40:40.655Z,20.27
2022-11-25T01:41:03.525Z,19.67
2022-11-25T01:41:26.960Z,19.85
2022-11-25T01:41:51.150Z,20.15
2022-11-25T01:42:13.840Z,20.45
2022-11-25T01:42:38.740Z,20.77
2022-11-25T01:43:01.452Z,20.48
2022-11-25T01:43:24.209Z,20.35
2022-11-25T01:44:05.945Z,20.38
2022-11-25T01:44:28.619Z,19.98
2022-11-25T01:45:36.214Z,18.60
2022-11-25T01:46:00.352Z,21.52
2022-11-25T01:46:24.489Z,21.92
2022-11-25T01:46:53.545Z,21.83
2022-11-25T01:47:18.850Z,21.83
2022-11-25T01:47:41.560Z,22.30
2022-11-25T01:48:10.404Z,21.90
2022-11-25T01:48:36.017Z,22.45
2022-11-25T01:49:00.175Z,23.30
2022-11-25T01:49:30.131Z,22.98
2022-11-25T01:49:55.956Z,22.27
2022-11-25T01:50:19.063Z,23.38
2022-11-25T01:50:41.785Z,23.73
2022-11-25T01:51:04.515Z,22.20
2022-11-25T01:51:29.616Z,23.58
2022-11-25T01:51:54.755Z,23.67
2022-11-25T01:52:18.599Z,23.55
2022-11-25T01:52:44.200Z,22.30
2022-11-25T01:53:07.605Z,22.80
2022-11-25T01:53:30.339Z,22.25
2022-11-25T01:53:53.130Z,23.00
2022-11-25T01:54:17.930Z,23.10
2022-11-25T01:54:43.190Z,22.77
2022-11-25T01:55:08.174Z,22.70
2022-11-25T01:55:34.635Z,22.63
2022-11-25T01:56:00.496Z,21.63
2022-11-25T01:56:23.200Z,21.45
2022-11-25T01:56:49.445Z,21.45
2022-11-25T01:57:15.540Z,21.77
2022-11-25T01:57:39.540Z,21.38
2022-11-25T01:58:04.154Z,22.35
2022-11-25T01:58:28.233Z,22.70
2022-11-25T01:58:51.010Z,21.00
2022-11-25T01:59:13.735Z,21.20
2022-11-25T01:59:38.973Z,21.15
2022-11-25T02:00:02.217Z,19.55
2022-11-25T02:00:25.784Z,19.98
2022-11-25T02:00:51.756Z,21.00
2022-11-25T02:01:14.751Z,20.08
2022-11-25T02:01:37.517Z,20.98
2022-11-25T02:02:00.284Z,21.48
2022-11-25T02:02:23.103Z,22.27
2022-11-25T02:02:46.358Z,22.65
2022-11-25T02:03:09.193Z,22.15
2022-11-25T02:03:33.424Z,20.63
2022-11-25T02:03:56.114Z,19.55
2022-11-25T02:04:18.821Z,19.17
2022-11-25T02:04:41.533Z,19.48
2022-11-25T02:05:07.261Z,20.75
2022-11-25T02:05:34.066Z,20.45
2022-11-25T02:05:59.362Z,20.92
2022-11-25T02:06:24.450Z,23.55
2022-11-25T02:06:50.971Z,22.58
2022-11-25T02:07:15.939Z,20.83
2022-11-25T02:07:40.130Z,21.83
2022-11-25T02:08:02.955Z,21.25
2022-11-25T02:08:25.718Z,20.55
2022-11-25T02:08:51.329Z,21.60
2022-11-25T02:09:14.019Z,21.23
2022-11-25T02:09:37.955Z,20.50
2022-11-25T02:10:00.816Z,20.48
2022-11-25T02:10:25.945Z,20.67
2022-11-25T02:10:48.618Z,19.92
2022-11-25T02:11:11.379Z,19.95
2022-11-25T02:11:35.555Z,19.65
2022-11-25T02:11:58.261Z,19.05
2022-11-25T02:12:22.284Z,18.98
2022-11-25T02:12:46.084Z,19.48
2022-11-25T02:13:08.833Z,19.30
2022-11-25T02:13:31.686Z,19.25
2022-11-25T02:13:54.499Z,18.67
2022-11-25T02:14:17.481Z,19.10
2022-11-25T02:14:40.204Z,19.25
2022-11-25T02:15:02.880Z,19.17
2022-11-25T02:15:25.609Z,18.92
2022-11-25T02:15:48.324Z,19.05
2022-11-25T02:16:11.110Z,19.30
2022-11-25T02:16:33.864Z,18.63
2022-11-25T02:16:56.737Z,18.00
2022-11-25T02:17:19.801Z,18.30
2022-11-25T02:17:43.101Z,18.90
2022-11-25T02:18:05.907Z,19.20
2022-11-25T02:18:28.653Z,19.30
2022-11-25T02:18:51.385Z,18.65
2022-11-25T02:19:17.758Z,19.17
2022-11-25T02:19:51.079Z,18.92
2022-11-25T02:20:15.195Z,18.23
2022-11-25T02:20:39.184Z,18.23
2022-11-25T02:21:02.103Z,18.95
2022-11-25T02:21:26.389Z,19.30
2022-11-25T02:21:52.303Z,19.58
2022-11-25T02:22:19.178Z,20.15
2022-11-25T02:22:47.579Z,19.63
2022-11-25T02:23:16.328Z,20.25
2022-11-25T02:23:41.137Z,20.63
2022-11-25T02:24:08.178Z,19.67
2022-11-25T02:24:33.944Z,20.15
2022-11-25T02:25:01.124Z,19.60
2022-11-25T02:25:26.096Z,19.45
2022-11-25T02:25:48.899Z,19.25
2022-11-25T02:26:11.620Z,19.10
2022-11-25T02:26:34.318Z,20.02
2022-11-25T02:26:57.143Z,19.67
2022-11-25T02:27:19.846Z,19.30
2022-11-25T02:27:43.249Z,19.20
2022-11-25T02:28:07.045Z,17.95
2022-11-25T02:28:30.895Z,18.27
2022-11-25T02:28:53.597Z,18.00
2022-11-25T02:29:16.395Z,18.77
2022-11-25T02:29:39.672Z,18.88
2022-11-25T02:30:02.367Z,19.10
2022-11-25T02:30:26.221Z,20.20
2022-11-25T02:30:49.280Z,19.33
2022-11-25T02:31:12.063Z,19.17
2022-11-25T02:31:34.818Z,19.65
2022-11-25T02:31:57.608Z,20.33
2022-11-25T02:32:23.210Z,19.83
2022-11-25T02:32:46.037Z,20.67
2022-11-25T02:33:08.715Z,21.27
2022-11-25T02:33:31.588Z,20.08
2022-11-25T02:33:54.360Z,19.52
2022-11-25T02:34:19.783Z,19.17
2022-11-25T02:34:47.198Z,20.48
2022-11-25T02:35:26.726Z,20.00
2022-11-25T02:35:50.203Z,20.15
2022-11-25T02:36:16.853Z,20.65
2022-11-25T02:36:39.587Z,20.25
2022-11-25T02:37:02.299Z,20.58
2022-11-25T02:37:24.983Z,20.38
2022-11-25T02:37:47.678Z,20.23
2022-11-25T02:38:11.523Z,20.65
2022-11-25T02:38:38.080Z,21.52
2022-11-25T02:39:01.697Z,20.35
2022-11-25T02:39:24.645Z,22.10
2022-11-25T02:39:47.359Z,21.75
2022-11-25T02:40:12.183Z,21.58
2022-11-25T02:40:39.339Z,22.33
2022-11-25T02:41:06.553Z,21.95
2022-11-25T02:41:30.693Z,21.30
2022-11-25T02:41:54.549Z,22.20
2022-11-25T02:42:17.443Z,20.90
2022-11-25T02:42:40.162Z,20.25
2022-11-25T02:43:02.873Z,20.95
2022-11-25T02:43:27.239Z,21.95
2022-11-25T02:43:49.918Z,21.35
2022-11-25T02:44:12.597Z,21.00
2022-11-25T02:44:35.552Z,21.30
2022-11-25T02:44:58.763Z,20.98
2022-11-25T02:45:23.239Z,20.13
2022-11-25T02:45:53.407Z,20.38
2022-11-25T02:46:21.936Z,20.10
2022-11-25T02:46:45.279Z,20.90
2022-11-25T02:47:07.999Z,20.10
2022-11-25T02:47:30.804Z,19.67
2022-11-25T02:47:53.498Z,19.90
2022-11-25T02:48:16.166Z,19.63
2022-11-25T02:49:07.327Z,20.15
2022-11-25T02:49:22.326Z,19.02
2022-11-25T02:49:45.116Z,19.20
2022-11-25T02:50:08.874Z,19.38
2022-11-25T02:50:31.549Z,18.33
2022-11-25T02:50:54.195Z,19.40
2022-11-25T02:51:18.372Z,18.88
2022-11-25T02:51:44.165Z,19.98
2022-11-25T02:52:06.834Z,18.85
2022-11-25T02:52:29.435Z,19.08
2022-11-25T02:52:52.125Z,19.40
2022-11-25T02:53:15.061Z,19.10
2022-11-25T02:53:38.736Z,18.27
2022-11-25T02:54:01.616Z,18.85
2022-11-25T02:54:24.320Z,18.75
2022-11-25T02:54:49.444Z,18.27
2022-11-25T02:55:12.170Z,18.10
2022-11-25T02:55:36.290Z,16.35
2022-11-25T02:55:59.015Z,16.00
2022-11-25T02:56:23.634Z,15.95
2022-11-25T02:56:46.550Z,16.02
2022-11-25T02:57:09.242Z,15.65
2022-11-25T02:57:32.014Z,16.27
2022-11-25T02:57:57.421Z,16.17
2022-11-25T02:58:20.100Z,16.88
2022-11-25T02:58:47.052Z,16.95
2022-11-25T02:59:09.888Z,17.75
2022-11-25T02:59:34.890Z,18.40
2022-11-25T02:59:57.632Z,17.77
2022-11-25T03:00:20.917Z,18.05
2022-11-25T03:00:43.720Z,16.95
2022-11-25T03:01:09.728Z,16.75
2022-11-25T03:01:32.714Z,16.80
2022-11-25T03:01:55.659Z,16.10
2022-11-25T03:02:18.448Z,15.32
2022-11-25T03:02:41.228Z,15.57
2022-11-25T03:03:04.245Z,15.57
2022-11-25T03:03:26.947Z,16.40
2022-11-25T03:03:49.612Z,16.30
2022-11-25T03:04:12.562Z,16.55
2022-11-25T03:04:35.499Z,16.83
2022-11-25T03:04:58.392Z,16.80
2022-11-25T03:05:21.350Z,17.50
2022-11-25T03:05:44.157Z,16.02
2022-11-25T03:06:07.137Z,16.58
2022-11-25T03:06:30.020Z,15.82
2022-11-25T03:06:52.641Z,15.40
2022-11-25T03:07:15.389Z,16.02
2022-11-25T03:07:38.078Z,16.55
2022-11-25T03:08:01.042Z,16.88
2022-11-25T03:08:24.808Z,16.10
2022-11-25T03:08:47.514Z,16.27
2022-11-25T03:09:10.249Z,16.95
2022-11-25T03:09:33.052Z,16.42
2022-11-25T03:09:55.771Z,15.77
2022-11-25T03:10:18.554Z,16.10
2022-11-25T03:10:42.718Z,17.00
2022-11-25T03:11:05.722Z,17.02
2022-11-25T03:11:47.357Z,16.40
2022-11-25T03:12:22.093Z,15.90
2022-11-25T03:12:45.304Z,15.68
2022-11-25T03:13:08.397Z,15.77
2022-11-25T03:13:31.431Z,16.20
2022-11-25T03:13:54.139Z,16.35
2022-11-25T03:14:17.182Z,15.93
2022-11-25T03:14:39.900Z,16.23
2022-11-25T03:15:02.613Z,15.93
2022-11-25T03:15:25.682Z,15.75
2022-11-25T03:15:48.523Z,15.70
2022-11-25T03:16:11.261Z,15.52
2022-11-25T03:16:34.136Z,15.27
2022-11-25T03:16:56.922Z,16.30
2022-11-25T03:17:19.672Z,15.13
2022-11-25T03:17:42.409Z,16.00
2022-11-25T03:18:07.995Z,16.05
2022-11-25T03:18:30.684Z,16.67
2022-11-25T03:18:53.317Z,15.75
2022-11-25T03:19:16.007Z,16.30
2022-11-25T03:19:38.741Z,16.08
2022-11-25T03:20:01.489Z,16.33
2022-11-25T03:20:24.502Z,16.00
2022-11-25T03:20:49.706Z,15.88
2022-11-25T03:21:12.485Z,16.10
2022-11-25T03:21:35.222Z,15.68
2022-11-25T03:21:57.910Z,15.50
2022-11-25T03:22:21.087Z,15.10
2022-11-25T03:22:43.948Z,15.32
2022-11-25T03:23:06.758Z,14.40
2022-11-25T03:23:29.435Z,14.35
2022-11-25T03:23:52.183Z,14.95
2022-11-25T03:24:14.926Z,14.90
2022-11-25T03:24:40.063Z,15.05
2022-11-25T03:25:02.764Z,14.45
2022-11-25T03:25:25.459Z,14.95
2022-11-25T03:25:49.662Z,14.90
2022-11-25T03:26:12.427Z,14.65
2022-11-25T03:26:35.206Z,15.25
2022-11-25T03:26:57.862Z,15.48
2022-11-25T03:27:20.608Z,15.15
2022-11-25T03:27:43.307Z,14.82
2022-11-25T03:28:06.028Z,15.90
2022-11-25T03:28:28.707Z,15.93
2022-11-25T03:28:51.373Z,15.23
2022-11-25T03:29:14.035Z,15.48
2022-11-25T03:29:37.788Z,15.07
2022-11-25T03:30:03.078Z,14.73
2022-11-25T03:30:26.962Z,15.07
2022-11-25T03:30:49.733Z,15.00
2022-11-25T03:31:12.500Z,14.30
2022-11-25T03:31:35.334Z,15.27
2022-11-25T03:31:58.157Z,15.43
2022-11-25T03:32:20.927Z,15.43
2022-11-25T03:32:43.658Z,15.40
2022-11-25T03:33:06.402Z,15.90
2022-11-25T03:33:29.127Z,16.17
2022-11-25T03:33:51.829Z,16.15
2022-11-25T03:34:14.561Z,15.75
2022-11-25T03:34:39.694Z,15.73
2022-11-25T03:35:02.383Z,16.67
2022-11-25T03:35:25.032Z,16.58
2022-11-25T03:35:49.372Z,16.10
2022-11-25T03:36:11.982Z,17.50
2022-11-25T03:36:34.679Z,16.77
2022-11-25T03:36:57.488Z,16.23
2022-11-25T03:37:20.564Z,17.52
2022-11-25T03:37:43.309Z,17.50
2022-11-25T03:38:06.032Z,17.13
2022-11-25T03:38:28.682Z,18.00
2022-11-25T03:38:51.357Z,17.70
2022-11-25T03:39:14.090Z,16.90
2022-11-25T03:39:36.799Z,16.90
2022-11-25T03:39:59.514Z,17.67
2022-11-25T03:40:22.246Z,16.85
2022-11-25T03:40:44.960Z,17.30
2022-11-25T03:41:09.128Z,17.05
2022-11-25T03:41:31.903Z,17.10
2022-11-25T03:41:54.646Z,17.50
2022-11-25T03:42:17.371Z,17.63
2022-11-25T03:42:40.079Z,17.98
2022-11-25T03:43:02.842Z,17.20
2022-11-25T03:43:25.561Z,17.23
2022-11-25T03:43:49.073Z,17.52
2022-11-25T03:44:11.928Z,17.65
2022-11-25T03:44:37.594Z,17.45
2022-11-25T03:45:00.621Z,18.20
2022-11-25T03:45:23.320Z,18.27
2022-11-25T03:45:49.336Z,17.52
2022-11-25T03:46:12.061Z,17.15
2022-11-25T03:46:34.852Z,16.42
2022-11-25T03:46:57.520Z,16.85
2022-11-25T03:47:20.211Z,17.10
2022-11-25T03:47:43.187Z,16.90
2022-11-25T03:48:06.086Z,17.70
2022-11-25T03:48:28.756Z,16.35
2022-11-25T03:48:51.437Z,16.23
2022-11-25T03:49:14.172Z,17.38
2022-11-25T03:49:37.006Z,16.33
2022-11-25T03:50:02.125Z,16.20
2022-11-25T03:50:24.809Z,15.23
2022-11-25T03:50:49.521Z,15.23
2022-11-25T03:51:12.120Z,16.05
2022-11-25T03:51:34.912Z,16.70
2022-11-25T03:51:57.562Z,16.70
2022-11-25T03:52:20.311Z,15.85
2022-11-25T03:52:43.001Z,16.48
2022-11-25T03:53:05.725Z,16.00
2022-11-25T03:53:28.481Z,15.60
2022-11-25T03:53:51.225Z,15.52
2022-11-25T03:54:13.846Z,15.55
2022-11-25T03:54:36.760Z,15.02
2022-11-25T03:54:59.756Z,15.30
2022-11-25T03:55:22.434Z,15.50
2022-11-25T03:55:47.416Z,15.85
2022-11-25T03:56:11.587Z,15.90
2022-11-25T03:56:34.374Z,15.07
2022-11-25T03:56:57.149Z,15.52
2022-11-25T03:57:19.852Z,15.23
2022-11-25T03:57:42.629Z,15.73
2022-11-25T03:58:05.386Z,15.65
2022-11-25T03:58:28.131Z,15.30
2022-11-25T03:58:53.581Z,15.85
2022-11-25T03:59:16.297Z,16.83
2022-11-25T03:59:40.147Z,15.65
2022-11-25T04:00:03.096Z,14.98
2022-11-25T04:00:25.867Z,14.85
2022-11-25T04:00:48.524Z,16.00
2022-11-25T04:01:11.333Z,16.20
2022-11-25T04:01:34.140Z,16.42
2022-11-25T04:01:57.013Z,15.68
2022-11-25T04:02:19.754Z,15.25
2022-11-25T04:02:42.644Z,16.25
2022-11-25T04:03:05.441Z,15.25
2022-11-25T04:03:28.520Z,15.88
2022-11-25T04:03:51.211Z,16.90
2022-11-25T04:04:14.886Z,16.02
2022-11-25T04:04:37.870Z,16.27
2022-11-25T04:05:00.806Z,16.88
2022-11-25T04:05:23.515Z,16.27
2022-11-25T04:05:46.314Z,16.05
2022-11-25T04:06:09.132Z,15.23
2022-11-25T04:06:32.239Z,15.95
2022-11-25T04:06:54.926Z,16.75
2022-11-25T04:07:17.746Z,16.73
2022-11-25T04:07:43.215Z,15.85
2022-11-25T04:08:06.272Z,16.25
2022-11-25T04:08:29.020Z,16.63
2022-11-25T04:08:51.826Z,15.63
2022-11-25T04:09:14.746Z,16.58
2022-11-25T04:09:37.412Z,16.38
2022-11-25T04:10:00.151Z,17.15
2022-11-25T04:10:22.908Z,16.38
2022-11-25T04:10:45.571Z,15.57
2022-11-25T04:11:08.266Z,16.27
2022-11-25T04:11:50.925Z,16.05
2022-11-25T04:12:32.246Z,15.30
2022-11-25T04:12:54.926Z,16.45
2022-11-25T04:13:17.665Z,15.85
2022-11-25T04:13:40.405Z,15.85
2022-11-25T04:14:03.126Z,15.20
2022-11-25T04:14:28.968Z,15.88
2022-11-25T04:14:51.945Z,15.45
2022-11-25T04:15:14.900Z,16.13
2022-11-25T04:15:37.607Z,16.05
2022-11-25T04:16:00.323Z,15.48
2022-11-25T04:16:24.129Z,15.63
2022-11-25T04:16:46.935Z,15.88
2022-11-25T04:17:10.037Z,15.10
2022-11-25T04:17:32.728Z,16.17
2022-11-25T04:17:55.392Z,16.13
2022-11-25T04:18:18.546Z,16.05
2022-11-25T04:18:41.297Z,15.18
2022-11-25T04:19:04.047Z,14.90
2022-11-25T04:19:26.817Z,15.45
2022-11-25T04:19:49.577Z,15.75
2022-11-25T04:20:13.214Z,16.00
2022-11-25T04:20:35.876Z,16.00
2022-11-25T04:20:58.686Z,16.80
2022-11-25T04:21:21.411Z,16.73
2022-11-25T04:21:46.825Z,15.70
2022-11-25T04:22:13.591Z,16.42
2022-11-25T04:22:36.386Z,17.67
2022-11-25T04:22:59.091Z,16.77
2022-11-25T04:23:21.788Z,16.25
2022-11-25T04:23:44.492Z,15.32
2022-11-25T04:24:11.692Z,15.32
2022-11-25T04:24:34.980Z,16.77
2022-11-25T04:24:58.191Z,17.05
2022-11-25T04:25:20.852Z,15.32
2022-11-25T04:25:43.546Z,15.23
2022-11-25T04:26:06.246Z,15.68
2022-11-25T04:26:32.192Z,15.85
2022-11-25T04:26:56.325Z,15.75
2022-11-25T04:27:20.450Z,16.38
2022-11-25T04:27:43.871Z,14.85
2022-11-25T04:28:09.156Z,14.60
2022-11-25T04:28:34.646Z,16.33
2022-11-25T04:28:57.377Z,15.55
2022-11-25T04:29:20.205Z,15.40
2022-11-25T04:29:42.887Z,15.30
2022-11-25T04:30:07.690Z,15.77
2022-11-25T04:30:30.443Z,14.52
2022-11-25T04:30:53.182Z,15.38
2022-11-25T04:31:15.944Z,15.52
2022-11-25T04:31:38.666Z,16.08
2022-11-25T04:32:01.456Z,15.60
2022-11-25T04:32:24.166Z,15.20
2022-11-25T04:32:46.839Z,15.50
2022-11-25T04:33:09.629Z,15.75
2022-11-25T04:33:32.706Z,15.40
2022-11-25T04:33:55.406Z,16.88
2022-11-25T04:34:18.071Z,17.30
2022-11-25T04:34:41.112Z,16.23
2022-11-25T04:35:05.980Z,16.50
2022-11-25T04:35:28.884Z,16.13
2022-11-25T04:35:51.532Z,15.35
2022-11-25T04:36:14.270Z,15.55
2022-11-25T04:36:36.990Z,15.45
2022-11-25T04:36:59.675Z,15.48
2022-11-25T04:37:22.465Z,14.98
2022-11-25T04:37:45.120Z,15.02
2022-11-25T04:38:07.835Z,14.63
2022-11-25T04:38:30.619Z,14.60
2022-11-25T04:38:53.279Z,14.23
2022-11-25T04:39:15.964Z,14.82
2022-11-25T04:39:38.714Z,14.35
2022-11-25T04:40:01.464Z,14.90
2022-11-25T04:40:24.219Z,14.93
2022-11-25T04:40:46.875Z,14.20
2022-11-25T04:41:09.630Z,14.07
2022-11-25T04:41:32.371Z,14.43
2022-11-25T04:42:16.486Z,14.60
2022-11-25T04:42:39.910Z,14.40
2022-11-25T04:43:07.530Z,14.00
2022-11-25T04:43:33.114Z,14.80
2022-11-25T04:43:55.804Z,14.68
2022-11-25T04:44:18.494Z,14.48
2022-11-25T04:44:41.206Z,14.15
2022-11-25T04:45:24.637Z,14.52
2022-11-25T04:46:34.340Z,13.63
2022-11-25T04:46:57.146Z,14.10
2022-11-25T04:47:19.883Z,13.45
2022-11-25T04:47:42.758Z,13.88
2022-11-25T04:48:08.494Z,12.98
2022-11-25T04:48:31.194Z,13.20
2022-11-25T04:48:53.938Z,13.57
2022-11-25T04:49:16.613Z,13.98
2022-11-25T04:49:39.411Z,13.55
2022-11-25T04:50:02.123Z,13.85
2022-11-25T04:50:24.951Z,15.13
2022-11-25T04:50:47.695Z,15.23
2022-11-25T04:51:10.563Z,14.75
2022-11-25T04:51:33.305Z,14.80
2022-11-25T04:51:56.100Z,15.65
2022-11-25T04:52:18.849Z,15.90
2022-11-25T04:52:41.541Z,17.25
2022-11-25T04:53:05.280Z,16.15
2022-11-25T04:53:27.983Z,16.10
2022-11-25T04:53:50.755Z,15.82
2022-11-25T04:54:17.407Z,15.45
2022-11-25T04:54:40.495Z,15.02
2022-11-25T04:55:03.253Z,14.80
2022-11-25T04:55:26.043Z,14.02
2022-11-25T04:55:48.723Z,13.52
2022-11-25T04:56:13.092Z,13.98
2022-11-25T04:56:35.821Z,13.65
2022-11-25T04:56:59.998Z,15.27
2022-11-25T04:57:22.724Z,15.50
2022-11-25T04:57:47.711Z,15.07
2022-11-25T04:58:10.720Z,14.77
2022-11-25T04:58:56.273Z,14.23
2022-11-25T04:59:37.755Z,15.20
2022-11-25T05:00:00.485Z,14.02
2022-11-25T05:00:23.376Z,14.43
2022-11-25T05:00:46.116Z,15.13
2022-11-25T05:01:08.910Z,14.75
2022-11-25T05:01:31.794Z,14.68
2022-11-25T05:01:54.654Z,14.30
2022-11-25T05:02:18.593Z,14.52
2022-11-25T05:02:42.164Z,15.48
2022-11-25T05:03:05.191Z,15.63
2022-11-25T05:03:27.856Z,15.52
2022-11-25T05:03:55.972Z,15.02
2022-11-25T05:04:20.012Z,15.80
2022-11-25T05:04:43.590Z,16.35
2022-11-25T05:05:07.401Z,15.80
2022-11-25T05:05:30.407Z,15.85
2022-11-25T05:05:53.122Z,15.57
2022-11-25T05:06:15.842Z,15.40
2022-11-25T05:06:38.561Z,15.80
2022-11-25T05:07:01.290Z,15.10
2022-11-25T05:07:26.545Z,16.23
2022-11-25T05:07:49.659Z,17.08
2022-11-25T05:08:12.349Z,17.73